createdAt,value
2018-06-13T00:02:12.194Z,8.77
2018-06-13T00:04:39.773Z,8.40
2018-06-13T00:07:07.431Z,8.30
2018-06-13T00:09:35.004Z,8.17
2018-06-13T00:12:03.001Z,8.43
2018-06-13T00:14:30.714Z,8.03
2018-06-13T00:16:59.364Z,7.53
2018-06-13T00:19:26.913Z,8.10
2018-06-13T00:21:58.209Z,7.10
2018-06-13T00:24:25.825Z,7.57
2018-06-13T00:26:53.424Z,8.17
2018-06-13T00:29:21.005Z,7.73
2018-06-13T00:31:48.676Z,8.03
2018-06-13T00:34:16.263Z,8.67
2018-06-13T00:36:43.982Z,7.50
2018-06-13T00:39:11.596Z,7.73
2018-06-13T00:41:39.204Z,7.90
2018-06-13T00:44:06.863Z,7.67
2018-06-13T00:46:34.440Z,7.30
2018-06-13T00:49:02.096Z,6.83
2018-06-13T00:51:29.645Z,7.10
2018-06-13T00:53:57.356Z,6.67
2018-06-13T00:56:30.758Z,6.40
2018-06-13T00:58:58.339Z,5.40
2018-06-13T01:01:25.996Z,5.40
2018-06-13T01:03:53.842Z,4.70
2018-06-13T01:06:21.440Z,6.03
2018-06-13T01:08:48.996Z,5.03
2018-06-13T01:11:16.576Z,4.83
2018-06-13T01:13:45.201Z,5.23
2018-06-13T01:16:12.879Z,5.83
2018-06-13T01:18:40.779Z,5.20
2018-06-13T01:21:08.729Z,5.13
2018-06-13T01:23:36.347Z,5.00
2018-06-13T01:26:04.216Z,4.83
2018-06-13T01:28:31.784Z,4.83
2018-06-13T01:30:59.431Z,4.57
2018-06-13T01:33:27.643Z,4.70
2018-06-13T01:35:55.291Z,4.97
2018-06-13T01:38:22.884Z,4.23
2018-06-13T01:40:50.475Z,4.60
2018-06-13T01:43:18.188Z,4.90
2018-06-13T01:45:45.839Z,4.50
2018-06-13T01:48:13.962Z,5.17
2018-06-13T01:50:54.630Z,4.27
2018-06-13T01:53:22.507Z,4.60
2018-06-13T01:55:50.157Z,4.57
2018-06-13T01:58:17.824Z,4.77
2018-06-13T02:00:45.437Z,4.30
2018-06-13T02:03:13.094Z,4.77
2018-06-13T02:05:40.685Z,4.03
2018-06-13T02:08:08.249Z,4.77
2018-06-13T02:10:35.949Z,4.10
2018-06-13T02:13:03.585Z,4.90
2018-06-13T02:15:31.197Z,4.27
2018-06-13T02:17:58.874Z,4.60
2018-06-13T02:20:26.605Z,4.53
2018-06-13T02:22:54.279Z,4.37
2018-06-13T02:25:21.856Z,4.23
2018-06-13T02:27:49.418Z,4.10
2018-06-13T02:30:17.027Z,4.50
2018-06-13T02:32:45.722Z,4.80
2018-06-13T02:35:13.301Z,4.63
2018-06-13T02:37:40.852Z,4.60
2018-06-13T02:40:08.420Z,4.33
2018-06-13T02:42:36.179Z,4.93
2018-06-13T02:45:03.909Z,4.30
2018-06-13T02:47:31.476Z,4.63
2018-06-13T02:49:59.007Z,5.33
2018-06-13T02:52:26.652Z,4.80
2018-06-13T02:54:54.306Z,4.73
2018-06-13T02:57:22.573Z,5.73
2018-06-13T02:59:50.140Z,4.57
2018-06-13T03:02:17.796Z,5.43
2018-06-13T03:04:45.418Z,4.20
2018-06-13T03:07:13.052Z,4.93
2018-06-13T03:09:40.789Z,4.67
2018-06-13T03:12:09.154Z,5.63
2018-06-13T03:14:36.881Z,4.73
2018-06-13T03:17:04.499Z,4.97
2018-06-13T03:19:32.090Z,7.33
2018-06-13T03:21:59.727Z,4.53
2018-06-13T03:24:27.458Z,4.90
2018-06-13T03:26:55.039Z,4.57
2018-06-13T03:29:22.621Z,4.80
2018-06-13T03:31:50.317Z,5.17
2018-06-13T03:34:18.007Z,5.40
2018-06-13T03:36:45.608Z,5.33
2018-06-13T03:39:13.176Z,5.10
2018-06-13T03:41:40.904Z,4.87
2018-06-13T03:44:08.524Z,6.77
2018-06-13T03:46:36.111Z,4.63
2018-06-13T03:49:03.614Z,5.10
2018-06-13T03:51:31.178Z,4.90
2018-06-13T03:53:58.754Z,5.23
2018-06-13T03:56:26.434Z,4.80
2018-06-13T03:58:54.056Z,4.87
2018-06-13T04:01:21.657Z,4.90
2018-06-13T04:03:49.219Z,5.87
2018-06-13T04:06:16.860Z,5.60
2018-06-13T04:08:44.400Z,4.97
2018-06-13T04:11:11.947Z,5.50
2018-06-13T04:13:39.498Z,6.17
2018-06-13T04:16:07.127Z,5.17
2018-06-13T04:18:34.750Z,5.00
2018-06-13T04:21:02.516Z,5.13
2018-06-13T04:23:30.168Z,5.53
2018-06-13T04:25:57.734Z,4.73
2018-06-13T04:28:25.448Z,4.97
2018-06-13T04:30:53.012Z,5.40
2018-06-13T04:33:20.600Z,5.50
2018-06-13T04:35:48.188Z,5.27
2018-06-13T04:38:15.736Z,5.43
2018-06-13T04:40:43.340Z,4.60
2018-06-13T04:43:10.968Z,5.07
2018-06-13T04:45:38.534Z,4.50
2018-06-13T04:48:06.104Z,5.20
2018-06-13T04:50:33.673Z,5.10
2018-06-13T04:53:01.225Z,5.07
2018-06-13T04:55:28.812Z,5.33
2018-06-13T04:57:56.497Z,5.33
2018-06-13T05:00:24.031Z,4.33
2018-06-13T05:02:51.591Z,4.80
2018-06-13T05:05:20.018Z,5.03
2018-06-13T05:07:47.663Z,4.53
2018-06-13T05:10:15.268Z,5.13
2018-06-13T05:12:42.888Z,4.70
2018-06-13T05:15:10.510Z,5.27
2018-06-13T05:17:38.091Z,4.23
2018-06-13T05:20:05.740Z,4.37
2018-06-13T05:22:33.472Z,4.47
2018-06-13T05:25:01.032Z,4.63
2018-06-13T05:27:28.660Z,5.10
2018-06-13T05:29:56.256Z,5.23
2018-06-13T05:32:23.883Z,5.40
2018-06-13T05:34:51.540Z,4.93
2018-06-13T05:37:19.144Z,4.57
2018-06-13T05:39:46.697Z,4.73
2018-06-13T05:42:14.301Z,5.27
2018-06-13T05:44:42.000Z,4.87
2018-06-13T05:47:09.621Z,5.10
2018-06-13T05:49:37.197Z,4.60
2018-06-13T05:52:05.128Z,4.20
2018-06-13T05:54:33.487Z,4.50
2018-06-13T05:57:01.053Z,4.73
2018-06-13T05:59:28.606Z,4.20
2018-06-13T06:01:56.447Z,4.30
2018-06-13T06:04:24.187Z,4.27
2018-06-13T06:06:51.846Z,4.50
2018-06-13T06:09:19.458Z,4.90
2018-06-13T06:11:47.045Z,6.07
2018-06-13T06:14:14.665Z,6.70
2018-06-13T06:16:42.560Z,5.03
2018-06-13T06:19:10.167Z,4.77
2018-06-13T06:21:38.016Z,4.70
2018-06-13T06:24:05.689Z,4.47
2018-06-13T06:26:33.315Z,3.90
2018-06-13T06:29:00.871Z,3.80
2018-06-13T06:31:28.621Z,4.47
2018-06-13T06:33:56.234Z,4.30
2018-06-13T06:36:24.104Z,3.70
2018-06-13T06:38:51.664Z,4.30
2018-06-13T06:41:19.282Z,4.03
2018-06-13T06:43:47.149Z,4.30
2018-06-13T06:46:14.740Z,3.60
2018-06-13T06:48:42.436Z,3.53
2018-06-13T06:51:09.918Z,3.90
2018-06-13T06:53:37.645Z,3.93
2018-06-13T06:56:05.442Z,3.67
2018-06-13T06:58:33.070Z,3.70
2018-06-13T07:01:00.528Z,4.10
2018-06-13T07:03:28.313Z,3.30
2018-06-13T07:05:55.909Z,3.70
2018-06-13T07:08:23.507Z,3.57
2018-06-13T07:10:51.090Z,3.87
2018-06-13T07:13:18.714Z,3.60
2018-06-13T07:15:46.575Z,3.33
2018-06-13T07:18:14.345Z,3.43
2018-06-13T07:20:41.887Z,3.57
2018-06-13T07:23:09.699Z,3.60
2018-06-13T07:25:37.317Z,3.20
2018-06-13T07:28:04.935Z,3.70
2018-06-13T07:30:32.548Z,3.37
2018-06-13T07:33:00.271Z,3.90
2018-06-13T07:35:30.750Z,3.67
2018-06-13T07:37:58.447Z,3.17
2018-06-13T07:40:29.718Z,3.57
2018-06-13T07:42:57.287Z,3.67
2018-06-13T07:45:24.890Z,3.17
2018-06-13T07:47:52.497Z,2.83
2018-06-13T07:50:20.120Z,2.73
2018-06-13T07:52:47.658Z,2.77
2018-06-13T07:55:15.288Z,3.27
2018-06-13T07:57:43.010Z,2.90
2018-06-13T08:00:10.624Z,3.00
2018-06-13T08:02:38.237Z,3.30
2018-06-13T08:05:05.852Z,3.23
2018-06-13T08:07:33.441Z,2.90
2018-06-13T08:10:00.979Z,3.50
2018-06-13T08:12:28.526Z,3.47
2018-06-13T08:14:56.296Z,3.10
2018-06-13T08:17:24.045Z,3.67
2018-06-13T08:19:51.640Z,3.50
2018-06-13T08:22:20.673Z,4.03
2018-06-13T08:24:52.836Z,2.93
2018-06-13T08:27:20.543Z,3.13
2018-06-13T08:29:48.646Z,3.10
2018-06-13T08:32:16.485Z,3.40
2018-06-13T08:34:44.109Z,3.10
2018-06-13T08:37:11.681Z,2.70
2018-06-13T08:39:39.328Z,2.53
2018-06-13T08:42:07.006Z,3.03
2018-06-13T08:44:34.534Z,2.70
2018-06-13T08:47:02.227Z,2.80
2018-06-13T08:49:29.795Z,3.07
2018-06-13T08:51:57.392Z,3.30
2018-06-13T08:54:25.015Z,3.30
2018-06-13T08:56:52.944Z,3.07
2018-06-13T08:59:20.535Z,3.20
2018-06-13T09:01:48.142Z,3.17
2018-06-13T09:04:16.032Z,3.43
2018-06-13T09:06:43.643Z,2.90
2018-06-13T09:09:11.280Z,2.93
2018-06-13T09:11:38.904Z,3.47
2018-06-13T09:14:06.514Z,3.30
2018-06-13T09:16:34.092Z,3.40
2018-06-13T09:19:02.813Z,3.67
2018-06-13T09:21:32.728Z,3.10
2018-06-13T09:24:00.349Z,3.10
2018-06-13T09:26:27.931Z,3.37
2018-06-13T09:28:55.719Z,3.23
2018-06-13T09:31:23.421Z,3.13
2018-06-13T09:33:51.306Z,3.00
2018-06-13T09:36:18.924Z,2.50
2018-06-13T09:38:46.604Z,2.60
2018-06-13T09:41:14.275Z,3.10
2018-06-13T09:43:41.888Z,3.40
2018-06-13T09:46:12.015Z,2.70
2018-06-13T09:48:37.392Z,2.70
2018-06-13T09:51:05.000Z,2.40
2018-06-13T09:53:32.833Z,2.17
2018-06-13T09:56:00.444Z,2.90
2018-06-13T09:58:32.710Z,2.67
2018-06-13T10:01:06.559Z,2.60
2018-06-13T10:03:34.166Z,3.03
2018-06-13T10:06:01.818Z,2.83
2018-06-13T10:08:29.613Z,2.40
2018-06-13T10:10:57.484Z,2.20
2018-06-13T10:13:24.993Z,3.33
2018-06-13T10:15:52.605Z,2.33
2018-06-13T10:18:20.160Z,2.20
2018-06-13T10:20:47.754Z,2.60
2018-06-13T10:23:15.428Z,2.70
2018-06-13T10:25:43.063Z,2.53
2018-06-13T10:28:10.704Z,2.40
2018-06-13T10:30:38.405Z,2.37
2018-06-13T10:33:06.381Z,2.47
2018-06-13T10:35:34.501Z,2.87
2018-06-13T10:38:02.109Z,3.03
2018-06-13T10:40:33.567Z,2.40
2018-06-13T10:43:01.700Z,2.00
2018-06-13T10:45:29.388Z,2.73
2018-06-13T10:47:59.907Z,2.50
2018-06-13T10:50:27.539Z,2.40
2018-06-13T10:52:55.018Z,2.30
2018-06-13T10:55:22.686Z,2.40
2018-06-13T10:57:50.313Z,2.90
2018-06-13T11:00:17.925Z,2.87
2018-06-13T11:02:45.632Z,2.80
2018-06-13T11:05:13.275Z,2.50
2018-06-13T11:07:41.013Z,2.30
2018-06-13T11:10:08.763Z,2.20
2018-06-13T11:12:36.419Z,2.00
2018-06-13T11:15:04.106Z,2.73
2018-06-13T11:17:31.895Z,3.13
2018-06-13T11:19:59.557Z,2.60
2018-06-13T11:22:27.273Z,2.60
2018-06-13T11:24:54.920Z,2.43
2018-06-13T11:27:22.536Z,2.23
2018-06-13T11:29:50.200Z,2.33
2018-06-13T11:32:19.150Z,2.13
2018-06-13T11:34:46.908Z,2.20
2018-06-13T11:37:14.524Z,2.53
2018-06-13T11:39:42.069Z,2.53
2018-06-13T11:42:09.951Z,1.97
2018-06-13T11:44:37.511Z,2.23
2018-06-13T11:47:05.208Z,2.40
2018-06-13T11:49:32.987Z,2.50
2018-06-13T11:52:00.719Z,2.60
2018-06-13T11:54:28.357Z,2.50
2018-06-13T11:56:56.131Z,2.37
2018-06-13T11:59:23.769Z,2.10
2018-06-13T12:01:51.433Z,2.53
2018-06-13T12:04:18.995Z,2.10
2018-06-13T12:06:49.627Z,2.37
2018-06-13T12:09:17.312Z,2.50
2018-06-13T12:11:44.909Z,2.20
2018-06-13T12:14:12.845Z,2.53
2018-06-13T12:16:40.475Z,2.00
2018-06-13T12:19:08.164Z,3.27
2018-06-13T12:21:35.941Z,2.40
2018-06-13T12:24:03.627Z,2.20
2018-06-13T12:26:31.168Z,2.43
2018-06-13T12:28:58.930Z,2.57
2018-06-13T12:31:26.736Z,2.70
2018-06-13T12:33:55.250Z,2.60
2018-06-13T12:36:22.779Z,2.90
2018-06-13T12:38:50.347Z,2.70
2018-06-13T12:41:19.477Z,3.67
2018-06-13T12:43:47.087Z,2.97
2018-06-13T12:46:14.647Z,3.30
2018-06-13T12:48:42.241Z,3.13
2018-06-13T12:51:09.916Z,3.20
2018-06-13T12:53:37.549Z,3.47
2018-06-13T12:56:05.543Z,3.27
2018-06-13T12:58:33.238Z,3.10
2018-06-13T13:01:00.994Z,2.33
2018-06-13T13:03:28.751Z,2.57
2018-06-13T13:05:56.502Z,2.10
2018-06-13T13:08:24.112Z,2.07
2018-06-13T13:10:51.819Z,3.17
2018-06-13T13:13:19.281Z,2.40
2018-06-13T13:15:47.018Z,2.90
2018-06-13T13:18:14.554Z,2.70
2018-06-13T13:20:42.189Z,2.10
2018-06-13T13:23:09.757Z,2.30
2018-06-13T13:25:37.348Z,2.23
2018-06-13T13:28:05.238Z,2.30
2018-06-13T13:30:35.151Z,2.60
2018-06-13T13:33:02.776Z,2.33
2018-06-13T13:35:30.612Z,2.80
2018-06-13T13:37:58.583Z,3.10
2018-06-13T13:40:27.217Z,2.70
2018-06-13T13:42:54.876Z,2.67
2018-06-13T13:45:22.602Z,3.10
2018-06-13T13:47:50.240Z,2.70
2018-06-13T13:50:17.965Z,3.67
2018-06-13T13:52:45.634Z,2.40
2018-06-13T13:55:13.681Z,2.43
2018-06-13T13:57:44.063Z,2.90
2018-06-13T14:00:12.390Z,2.80
2018-06-13T14:02:44.389Z,2.23
2018-06-13T14:05:15.194Z,2.77
2018-06-13T14:07:43.766Z,2.47
2018-06-13T14:10:11.727Z,2.60
2018-06-13T14:12:39.683Z,2.50
2018-06-13T14:15:07.452Z,2.73
2018-06-13T14:17:35.116Z,3.93
2018-06-13T14:20:02.839Z,2.80
2018-06-13T14:22:30.501Z,3.13
2018-06-13T14:24:58.305Z,2.50
2018-06-13T14:27:25.979Z,2.70
2018-06-13T14:29:53.688Z,2.43
2018-06-13T14:32:22.746Z,2.97
2018-06-13T14:34:50.460Z,2.57
2018-06-13T14:37:18.541Z,2.30
2018-06-13T14:39:46.075Z,2.80
2018-06-13T14:42:13.845Z,2.67
2018-06-13T14:44:41.411Z,2.67
2018-06-13T14:47:08.993Z,2.43
2018-06-13T14:49:36.802Z,2.47
2018-06-13T14:52:04.491Z,2.90
2018-06-13T14:54:32.080Z,3.10
2018-06-13T14:56:59.692Z,3.43
2018-06-13T14:59:27.357Z,2.80
2018-06-13T15:01:55.078Z,2.50
2018-06-13T15:04:29.644Z,2.67
2018-06-13T15:06:57.243Z,13.03
2018-06-13T15:09:25.025Z,8.13
2018-06-13T15:11:52.840Z,3.37
2018-06-13T15:14:20.595Z,2.63
2018-06-13T15:16:48.603Z,2.93
2018-06-13T15:19:16.456Z,2.10
2018-06-13T15:21:44.287Z,2.30
2018-06-13T15:24:12.056Z,2.57
2018-06-13T15:26:39.663Z,3.10
2018-06-13T15:29:07.369Z,2.77
2018-06-13T15:31:34.970Z,2.67
2018-06-13T15:34:02.656Z,2.17
2018-06-13T15:36:30.349Z,2.20
2018-06-13T15:38:58.169Z,2.33
2018-06-13T15:41:26.033Z,3.13
2018-06-13T15:43:53.973Z,2.33
2018-06-13T15:46:21.603Z,2.70
2018-06-13T15:48:49.413Z,2.20
2018-06-13T15:51:17.220Z,2.60
2018-06-13T15:53:44.779Z,2.70
2018-06-13T15:56:12.583Z,2.50
2018-06-13T15:58:40.224Z,2.60
2018-06-13T16:01:07.807Z,2.43
2018-06-13T16:03:35.480Z,2.60
2018-06-13T16:06:03.192Z,2.40
2018-06-13T16:08:31.024Z,2.60
2018-06-13T16:10:58.718Z,3.00
2018-06-13T16:13:26.316Z,2.23
2018-06-13T16:15:54.092Z,2.73
2018-06-13T16:18:21.752Z,2.90
2018-06-13T16:20:49.440Z,2.40
2018-06-13T16:23:17.100Z,2.93
2018-06-13T16:25:44.689Z,2.70
2018-06-13T16:28:12.431Z,2.63
2018-06-13T16:30:40.621Z,2.30
2018-06-13T16:33:08.274Z,2.47
2018-06-13T16:35:36.788Z,4.83
2018-06-13T16:38:04.947Z,7.40
2018-06-13T16:40:32.758Z,6.73
2018-06-13T16:43:00.362Z,4.43
2018-06-13T16:45:28.054Z,3.90
2018-06-13T16:47:55.803Z,2.83
2018-06-13T16:50:35.089Z,3.17
2018-06-13T16:53:17.265Z,2.80
2018-06-13T16:55:45.031Z,2.60
2018-06-13T16:58:12.643Z,3.40
2018-06-13T17:00:40.332Z,3.00
2018-06-13T17:03:08.014Z,3.47
2018-06-13T17:05:38.777Z,2.70
2018-06-13T17:08:06.505Z,3.00
2018-06-13T17:10:34.254Z,2.90
2018-06-13T17:13:01.912Z,3.00
2018-06-13T17:15:29.594Z,3.03
2018-06-13T17:17:57.189Z,3.10
2018-06-13T17:20:24.783Z,3.10
2018-06-13T17:22:52.615Z,3.60
2018-06-13T17:25:20.258Z,3.27
2018-06-13T17:27:47.971Z,3.00
2018-06-13T17:30:16.192Z,3.00
2018-06-13T17:32:43.771Z,3.37
2018-06-13T17:35:11.518Z,2.80
2018-06-13T17:37:39.367Z,3.27
2018-06-13T17:40:07.044Z,3.07
2018-06-13T17:42:34.709Z,4.10
2018-06-13T17:45:02.315Z,3.10
2018-06-13T17:47:30.091Z,3.67
2018-06-13T17:49:57.768Z,3.00
2018-06-13T17:52:25.411Z,8.43
2018-06-13T17:54:53.043Z,9.33
2018-06-13T17:57:21.027Z,5.70
2018-06-13T17:59:49.739Z,4.53
2018-06-13T18:02:17.660Z,4.67
2018-06-13T18:04:45.315Z,3.77
2018-06-13T18:07:13.013Z,3.43
2018-06-13T18:09:40.750Z,3.70
2018-06-13T18:12:08.333Z,3.43
2018-06-13T18:14:35.986Z,3.20
2018-06-13T18:17:03.795Z,3.40
2018-06-13T18:19:31.428Z,3.07
2018-06-13T18:21:59.130Z,3.20
2018-06-13T18:24:26.888Z,3.50
2018-06-13T18:26:54.656Z,3.10
2018-06-13T18:29:22.503Z,3.57
2018-06-13T18:31:50.184Z,3.13
2018-06-13T18:34:17.909Z,3.50
2018-06-13T18:36:45.462Z,3.13
2018-06-13T18:39:13.126Z,3.73
2018-06-13T18:41:42.304Z,3.43
2018-06-13T18:44:11.149Z,3.57
2018-06-13T18:46:38.779Z,3.80
2018-06-13T18:49:06.371Z,3.50
2018-06-13T18:51:34.342Z,3.60
2018-06-13T18:54:02.001Z,3.70
2018-06-13T18:56:29.719Z,4.33
2018-06-13T18:58:57.429Z,3.77
2018-06-13T19:01:25.060Z,3.27
2018-06-13T19:03:52.831Z,3.80
2018-06-13T19:06:20.560Z,3.23
2018-06-13T19:08:48.357Z,3.10
2018-06-13T19:11:16.019Z,3.83
2018-06-13T19:13:43.801Z,5.17
2018-06-13T19:16:11.427Z,4.50
2018-06-13T19:18:38.965Z,4.00
2018-06-13T19:21:06.596Z,4.07
2018-06-13T19:23:34.338Z,4.10
2018-06-13T19:26:02.541Z,4.03
2018-06-13T19:28:30.191Z,4.17
2018-06-13T19:30:57.821Z,4.03
2018-06-13T19:33:25.606Z,4.50
2018-06-13T19:35:53.140Z,4.03
2018-06-13T19:38:20.712Z,4.20
2018-06-13T19:40:48.413Z,4.17
2018-06-13T19:43:21.716Z,3.60
2018-06-13T19:45:49.398Z,3.87
2018-06-13T19:48:22.725Z,3.90
2018-06-13T19:50:50.481Z,3.67
2018-06-13T19:53:23.736Z,4.47
2018-06-13T19:55:57.155Z,4.63
2018-06-13T19:58:24.958Z,4.90
2018-06-13T20:00:52.567Z,4.43
2018-06-13T20:03:25.850Z,4.20
2018-06-13T20:05:53.340Z,4.97
2018-06-13T20:08:21.108Z,5.60
2018-06-13T20:10:48.920Z,4.63
2018-06-13T20:13:22.201Z,5.43
2018-06-13T20:15:55.541Z,5.30
2018-06-13T20:18:28.767Z,6.90
2018-06-13T20:20:56.508Z,6.40
2018-06-13T20:23:24.237Z,8.40
2018-06-13T20:25:57.582Z,8.17
2018-06-13T20:28:31.380Z,7.60
2018-06-13T20:31:06.285Z,7.57
2018-06-13T20:33:34.246Z,7.97
2018-06-13T20:36:01.873Z,6.60
2018-06-13T20:38:30.373Z,6.80
2018-06-13T20:40:58.030Z,5.90
2018-06-13T20:43:25.733Z,5.60
2018-06-13T20:45:53.411Z,6.07
2018-06-13T20:48:21.510Z,5.70
2018-06-13T20:50:50.141Z,5.73
2018-06-13T20:53:18.612Z,5.23
2018-06-13T20:55:46.353Z,6.13
2018-06-13T20:58:14.267Z,5.80
2018-06-13T21:00:42.804Z,9.03
2018-06-13T21:03:10.452Z,10.40
2018-06-13T21:05:38.134Z,7.83
2018-06-13T21:08:05.755Z,6.00
2018-06-13T21:10:33.598Z,5.63
2018-06-13T21:13:01.183Z,6.60
2018-06-13T21:15:28.858Z,6.23
2018-06-13T21:17:56.529Z,5.00
2018-06-13T21:20:24.188Z,5.23
2018-06-13T21:22:52.075Z,5.30
2018-06-13T21:25:19.694Z,5.07
2018-06-13T21:27:47.302Z,5.13
2018-06-13T21:30:14.783Z,5.17
2018-06-13T21:32:42.483Z,5.90
2018-06-13T21:35:10.085Z,5.67
2018-06-13T21:37:37.669Z,5.43
2018-06-13T21:40:05.449Z,5.57
2018-06-13T21:42:33.234Z,5.73
2018-06-13T21:45:00.861Z,5.37
2018-06-13T21:47:28.689Z,5.50
2018-06-13T21:49:56.498Z,5.83
2018-06-13T21:52:24.443Z,6.00
2018-06-13T21:54:52.024Z,4.87
2018-06-13T21:57:19.645Z,5.93
2018-06-13T21:59:47.241Z,5.20
2018-06-13T22:02:14.895Z,5.50
2018-06-13T22:04:42.573Z,5.20
2018-06-13T22:07:10.166Z,5.67
2018-06-13T22:09:37.732Z,5.43
2018-06-13T22:12:05.521Z,5.50
2018-06-13T22:14:33.152Z,5.40
2018-06-13T22:17:00.964Z,5.23
2018-06-13T22:19:28.754Z,5.17
2018-06-13T22:21:57.907Z,5.63
2018-06-13T22:24:25.526Z,5.50
2018-06-13T22:26:53.137Z,5.20
2018-06-13T22:29:20.728Z,5.20
2018-06-13T22:31:48.729Z,5.77
2018-06-13T22:34:16.349Z,5.33
2018-06-13T22:36:43.919Z,5.50
2018-06-13T22:39:12.497Z,5.93
2018-06-13T22:41:40.612Z,5.30
2018-06-13T22:44:09.197Z,5.17
2018-06-13T22:46:37.023Z,6.27
2018-06-13T22:49:04.689Z,5.90
2018-06-13T22:51:33.080Z,5.93
2018-06-13T22:54:00.737Z,6.43
2018-06-13T22:56:28.303Z,5.83
2018-06-13T22:58:55.884Z,6.17
2018-06-13T23:01:23.453Z,5.87
2018-06-13T23:03:51.004Z,5.97
2018-06-13T23:06:18.650Z,5.87
2018-06-13T23:08:46.296Z,5.90
2018-06-13T23:11:13.997Z,6.87
2018-06-13T23:13:41.602Z,6.73
2018-06-13T23:16:09.325Z,5.90
2018-06-13T23:18:38.032Z,5.53
2018-06-13T23:21:05.599Z,6.07
2018-06-13T23:23:33.211Z,6.53
2018-06-13T23:26:00.804Z,6.30
2018-06-13T23:28:28.411Z,6.20
2018-06-13T23:30:56.034Z,6.23
2018-06-13T23:33:23.655Z,5.77
2018-06-13T23:35:51.299Z,6.07
2018-06-13T23:38:18.947Z,6.80
2018-06-13T23:40:46.787Z,6.30
2018-06-13T23:43:14.735Z,6.67
2018-06-13T23:45:46.000Z,6.37
2018-06-13T23:48:14.862Z,6.00
2018-06-13T23:50:44.268Z,6.10
2018-06-13T23:53:11.912Z,5.97
2018-06-13T23:55:39.487Z,6.43
2018-06-13T23:58:07.115Z,6.60
